Time;durP1;ratioP1;P1;durP2;ratioP2;P2;SDS_P1;SDS_P2;PMS_P1;PMS_P2;Temp;Humidity;BMP_temperature;BMP_pressure;BME280_temperature;BME280_humidity;BME280_pressure;Samples;Min_cycle;Max_cycle;Signal;HPM_P1;HPM_P2
2023/10/09 00:03:00;;;;;;;;;;;21.10;80.40;;;;;;4955407;28;94984;-45
2023/10/09 00:08:11;;;;;;;;;;;21.10;80.30;;;;;;4947533;28;95232;-45
2023/10/09 00:10:52;;;;;;;;;;;21.10;80.10;;;;;;4953977;28;94738;-45
2023/10/09 00:13:18;;;;;;;;;;;21.10;80.20;;;;;;4941457;28;97809;-46
2023/10/09 00:15:45;;;;;;;;;;;21.10;80.30;;;;;;4946680;28;97465;-45
2023/10/09 00:18:12;;;;;;;;;;;21.10;80.30;;;;;;4948461;28;98336;-45
2023/10/09 00:20:42;;;;;;;;;;;21.10;80.20;;;;;;4948485;28;95852;-45
2023/10/09 00:23:15;;;;;;;;;;;21.10;80.10;;;;;;4947703;28;95674;-45
2023/10/09 00:25:54;;;;;;;;;;;21.10;80.10;;;;;;4946382;28;95558;-45
2023/10/09 00:28:22;;;;;;;;;;;21.10;80.00;;;;;;4952545;28;95221;-45
2023/10/09 00:30:47;;;;;;;;;;;21.10;80.00;;;;;;4945888;28;94533;-45
2023/10/09 00:33:13;;;;;;;;;;;21.10;80.00;;;;;;4955786;28;94755;-44
2023/10/09 00:40:46;;;;;;;;;;;21.00;79.90;;;;;;4953861;28;95253;-45
2023/10/09 00:43:13;;;;;;;;;;;21.00;80.00;;;;;;4942737;28;95283;-45
2023/10/09 00:45:40;;;;;;;;;;;21.00;79.90;;;;;;4954234;28;96468;-45
2023/10/09 00:48:06;;;;;;;;;;;21.10;80.00;;;;;;4955321;28;96399;-44
2023/10/09 00:50:36;;;;;;;;;;;21.10;80.00;;;;;;4956294;28;94702;-45
2023/10/09 00:53:12;;;;;;;;;;;21.00;80.00;;;;;;4941192;28;94723;-44
2023/10/09 00:55:45;;;;;;;;;;;21.00;80.00;;;;;;4951754;28;97772;-45
2023/10/09 00:58:14;;;;;;;;;;;21.00;80.00;;;;;;4953547;28;94864;-45
2023/10/09 01:00:46;;;;;;;;;;;21.00;80.00;;;;;;4948446;28;95660;-45
2023/10/09 01:11:09;;;;;;;;;;;21.00;79.80;;;;;;4950629;28;97221;-45
2023/10/09 01:16:13;;;;;;;;;;;21.00;79.80;;;;;;4947722;28;95391;-45
2023/10/09 01:18:43;;;;;;;;;;;20.90;79.90;;;;;;4952180;28;95593;-45
2023/10/09 01:21:14;;;;;;;;;;;20.90;79.90;;;;;;4952562;28;95279;-45
2023/10/09 01:23:52;;;;;;;;;;;20.90;80.00;;;;;;4950598;28;94788;-46
2023/10/09 01:26:18;;;;;;;;;;;20.90;80.00;;;;;;4944888;28;99762;-45
2023/10/09 01:28:44;;;;;;;;;;;20.90;80.00;;;;;;4934491;28;98118;-45
2023/10/09 01:31:09;;;;;;;;;;;20.90;79.90;;;;;;4946308;28;96032;-45
2023/10/09 01:33:36;;;;;;;;;;;20.90;80.00;;;;;;4946726;28;97727;-46
2023/10/09 01:36:02;;;;;;;;;;;20.90;80.00;;;;;;4957988;28;95652;-45
2023/10/09 01:38:40;;;;;;;;;;;20.90;79.90;;;;;;4944101;28;94282;-46
2023/10/09 01:41:08;;;;;;;;;;;20.90;79.80;;;;;;4943797;28;96601;-46
2023/10/09 01:43:34;;;;;;;;;;;20.90;79.80;;;;;;4948918;28;96060;-45
2023/10/09 01:46:01;;;;;;;;;;;20.90;79.80;;;;;;4945004;28;94794;-45
2023/10/09 01:48:26;;;;;;;;;;;20.80;79.90;;;;;;4953979;28;95427;-44
2023/10/09 01:50:53;;;;;;;;;;;20.80;79.90;;;;;;4948088;28;94659;-45
2023/10/09 01:53:22;;;;;;;;;;;20.80;80.00;;;;;;4949072;28;98511;-44
2023/10/09 01:55:47;;;;;;;;;;;20.80;79.90;;;;;;4956881;28;94750;-45
2023/10/09 02:00:54;;;;;;;;;;;20.80;79.70;;;;;;4944634;28;95503;-45
2023/10/09 02:03:23;;;;;;;;;;;20.80;79.80;;;;;;4952444;28;95167;-45
2023/10/09 02:06:17;;;;;;;;;;;20.80;79.70;;;;;;4945347;28;94728;-46
2023/10/09 02:08:49;;;;;;;;;;;20.80;79.70;;;;;;4939659;28;95300;-46
2023/10/09 02:11:24;;;;;;;;;;;20.80;79.70;;;;;;4948023;28;101172;-44
2023/10/09 02:13:53;;;;;;;;;;;20.70;79.70;;;;;;4944052;28;99392;-45
2023/10/09 02:16:28;;;;;;;;;;;20.80;79.70;;;;;;4951263;28;94884;-45
2023/10/09 02:18:55;;;;;;;;;;;20.70;79.70;;;;;;4948253;28;95652;-46
2023/10/09 02:21:33;;;;;;;;;;;20.70;79.70;;;;;;4956092;28;94871;-45
2023/10/09 02:24:09;;;;;;;;;;;20.70;79.70;;;;;;4951749;28;94838;-46
2023/10/09 02:29:18;;;;;;;;;;;20.70;79.70;;;;;;4949491;28;95247;-46
2023/10/09 02:31:51;;;;;;;;;;;20.70;79.60;;;;;;4951526;28;96282;-45
2023/10/09 02:34:21;;;;;;;;;;;20.70;79.60;;;;;;4944965;28;97309;-45
2023/10/09 02:36:57;;;;;;;;;;;20.70;79.50;;;;;;4951236;28;96502;-45
2023/10/09 02:39:28;;;;;;;;;;;20.70;79.50;;;;;;4950992;28;97186;-44
2023/10/09 02:42:01;;;;;;;;;;;20.70;79.50;;;;;;4938153;28;99984;-45
2023/10/09 02:44:29;;;;;;;;;;;20.60;79.40;;;;;;4951846;28;94041;-44
2023/10/09 02:46:57;;;;;;;;;;;20.60;79.30;;;;;;4949742;28;94677;-45
2023/10/09 02:49:24;;;;;;;;;;;20.70;79.30;;;;;;4948713;28;94739;-45
2023/10/09 02:51:53;;;;;;;;;;;20.70;79.30;;;;;;4952171;28;96297;-45
2023/10/09 02:54:18;;;;;;;;;;;20.70;79.30;;;;;;4946862;28;95971;-45
2023/10/09 02:56:47;;;;;;;;;;;20.60;79.30;;;;;;4947851;28;94798;-46
2023/10/09 02:59:13;;;;;;;;;;;20.60;79.40;;;;;;4944617;28;95340;-46
2023/10/09 03:01:39;;;;;;;;;;;20.60;79.20;;;;;;4945237;28;95107;-45
2023/10/09 03:04:13;;;;;;;;;;;20.60;79.40;;;;;;4945547;28;95858;-46
2023/10/09 03:06:43;;;;;;;;;;;20.60;79.30;;;;;;4945620;28;96444;-46
2023/10/09 03:09:19;;;;;;;;;;;20.60;79.20;;;;;;4949666;28;96581;-45
2023/10/09 03:11:53;;;;;;;;;;;20.60;79.30;;;;;;4941151;28;95550;-45
2023/10/09 03:14:20;;;;;;;;;;;20.60;79.30;;;;;;4947653;28;94709;-45
2023/10/09 03:16:48;;;;;;;;;;;20.50;79.30;;;;;;4947587;28;96167;-46
2023/10/09 03:19:13;;;;;;;;;;;20.60;79.30;;;;;;4948163;28;95515;-45
2023/10/09 03:21:39;;;;;;;;;;;20.50;79.30;;;;;;4951560;28;94727;-45
2023/10/09 03:24:06;;;;;;;;;;;20.50;79.20;;;;;;4947852;28;97217;-45
2023/10/09 03:26:32;;;;;;;;;;;20.50;79.10;;;;;;4946761;28;96685;-46
2023/10/09 03:29:00;;;;;;;;;;;20.50;79.20;;;;;;4944381;28;100425;-46
2023/10/09 03:31:30;;;;;;;;;;;20.50;79.20;;;;;;4944868;28;94849;-44
2023/10/09 03:33:56;;;;;;;;;;;20.50;79.10;;;;;;4946628;28;95045;-44
2023/10/09 03:36:21;;;;;;;;;;;20.50;79.20;;;;;;4953502;28;95111;-44
2023/10/09 03:38:48;;;;;;;;;;;20.50;79.20;;;;;;4943300;28;95269;-45
2023/10/09 03:41:14;;;;;;;;;;;20.50;79.10;;;;;;4943127;28;95794;-44
2023/10/09 03:43:43;;;;;;;;;;;20.50;79.20;;;;;;4947114;28;94625;-44
2023/10/09 03:46:44;;;;;;;;;;;20.50;79.00;;;;;;4950463;28;98785;-44
2023/10/09 03:49:00;;;;;;;;;;;20.50;79.10;;;;;;4952402;28;94173;-46
2023/10/09 03:51:29;;;;;;;;;;;20.50;79.00;;;;;;4951967;28;97249;-45
2023/10/09 03:53:54;;;;;;;;;;;20.50;79.10;;;;;;4945553;28;94803;-46
2023/10/09 03:56:23;;;;;;;;;;;20.50;79.00;;;;;;4939427;28;95607;-45
2023/10/09 03:58:49;;;;;;;;;;;20.40;78.90;;;;;;4953036;28;94898;-46
2023/10/09 04:01:22;;;;;;;;;;;20.40;79.00;;;;;;4947150;28;94955;-46
2023/10/09 04:03:48;;;;;;;;;;;20.40;79.00;;;;;;4944504;28;96892;-46
2023/10/09 04:06:17;;;;;;;;;;;20.40;78.90;;;;;;4952112;28;96447;-45
2023/10/09 04:08:47;;;;;;;;;;;20.40;78.80;;;;;;4942339;28;95362;-45
2023/10/09 04:11:16;;;;;;;;;;;20.40;78.90;;;;;;4938718;28;94878;-45
2023/10/09 04:13:45;;;;;;;;;;;20.40;78.90;;;;;;4943563;28;99150;-45
2023/10/09 04:16:25;;;;;;;;;;;20.40;78.90;;;;;;4950731;28;95208;-45
2023/10/09 04:18:52;;;;;;;;;;;20.40;78.90;;;;;;4952939;28;95300;-45
2023/10/09 04:21:30;;;;;;;;;;;20.40;78.90;;;;;;4945979;28;94820;-45
2023/10/09 04:24:08;;;;;;;;;;;20.30;78.90;;;;;;4952891;28;94652;-46
2023/10/09 04:26:34;;;;;;;;;;;20.40;78.80;;;;;;4942574;28;97246;-45
2023/10/09 04:29:02;;;;;;;;;;;20.30;78.70;;;;;;4940911;28;95550;-45
2023/10/09 04:31:31;;;;;;;;;;;20.30;78.80;;;;;;4946333;28;97438;-46
2023/10/09 04:36:49;;;;;;;;;;;20.30;78.70;;;;;;4955355;28;97198;-46
2023/10/09 04:39:35;;;;;;;;;;;20.30;78.70;;;;;;4950738;28;96221;-46
2023/10/09 04:47:36;;;;;;;;;;;20.30;78.50;;;;;;4938410;28;95172;-47
2023/10/09 04:52:54;;;;;;;;;;;20.30;78.50;;;;;;4951818;28;99033;-46
2023/10/09 04:55:24;;;;;;;;;;;20.30;78.40;;;;;;4947761;28;95633;-47
2023/10/09 04:58:09;;;;;;;;;;;20.30;78.40;;;;;;4956740;28;98362;-47
2023/10/09 05:03:10;;;;;;;;;;;20.20;78.50;;;;;;4944366;28;94471;-47
2023/10/09 05:08:19;;;;;;;;;;;20.20;78.50;;;;;;4942030;28;94900;-46
2023/10/09 05:11:15;;;;;;;;;;;20.20;78.40;;;;;;4942868;28;94340;-46
2023/10/09 05:16:05;;;;;;;;;;;20.20;78.40;;;;;;4940153;28;93992;-46
2023/10/09 05:18:37;;;;;;;;;;;20.20;78.50;;;;;;4940512;28;95250;-47
2023/10/09 05:23:44;;;;;;;;;;;20.20;78.60;;;;;;4935889;28;102948;-39
2023/10/09 05:28:58;;;;;;;;;;;20.20;78.80;;;;;;4934377;28;94977;-39
2023/10/09 05:34:08;;;;;;;;;;;20.30;78.90;;;;;;4941902;28;99573;-38
2023/10/09 05:36:35;;;;;;;;;;;20.20;78.70;;;;;;4931085;28;94842;-38
2023/10/09 05:47:22;;;;;;;;;;;20.20;79.10;;;;;;4940250;28;95898;-39
2023/10/09 06:08:24;;;;;;;;;;;20.70;76.20;;;;;;4947469;28;94146;-37
2023/10/09 06:11:05;;;;;;;;;;;20.70;76.10;;;;;;4941954;28;95212;-38
2023/10/09 06:13:37;;;;;;;;;;;20.80;75.70;;;;;;4932830;28;97986;-38
2023/10/09 06:16:19;;;;;;;;;;;20.80;75.50;;;;;;4947021;28;97375;-37
2023/10/09 06:18:53;;;;;;;;;;;20.90;75.40;;;;;;4949870;28;97774;-38
2023/10/09 06:24:17;;;;;;;;;;;21.00;74.90;;;;;;4948391;28;97735;-41
2023/10/09 06:29:38;;;;;;;;;;;21.00;74.70;;;;;;4957686;28;94627;-37
2023/10/09 06:43:31;;;;;;;;;;;21.10;74.10;;;;;;4941481;28;96573;-41
2023/10/09 06:48:44;;;;;;;;;;;21.10;74.20;;;;;;4941242;28;95772;-39
2023/10/09 06:59:21;;;;;;;;;;;21.10;74.00;;;;;;4931885;28;95880;-42
2023/10/09 07:02:25;;;;;;;;;;;21.10;73.70;;;;;;4949459;28;95034;-39
2023/10/09 07:07:01;;;;;;;;;;;21.10;73.70;;;;;;4950391;28;94694;-41
2023/10/09 07:09:42;;;;;;;;;;;21.10;73.70;;;;;;4942558;28;97829;-38
2023/10/09 07:12:20;;;;;;;;;;;21.10;73.70;;;;;;4948622;28;95840;-39
2023/10/09 07:17:44;;;;;;;;;;;21.10;73.70;;;;;;4947941;28;94663;-40
2023/10/09 07:20:36;;;;;;;;;;;21.10;73.50;;;;;;4932100;28;94245;-39
2023/10/09 07:23:13;;;;;;;;;;;21.10;73.50;;;;;;4950265;28;99382;-43
2023/10/09 07:26:00;;;;;;;;;;;21.10;74.10;;;;;;4950986;28;96826;-38
2023/10/09 07:28:43;;;;;;;;;;;21.20;73.50;;;;;;4941834;28;93973;-39
2023/10/09 07:31:23;;;;;;;;;;;21.20;73.40;;;;;;4945482;28;95284;-40
2023/10/09 07:33:59;;;;;;;;;;;21.20;73.20;;;;;;4955024;28;94712;-40
2023/10/09 07:36:34;;;;;;;;;;;21.20;73.30;;;;;;4949621;28;96037;-41
2023/10/09 07:39:12;;;;;;;;;;;21.30;73.10;;;;;;4944687;28;97185;-41
2023/10/09 07:41:44;;;;;;;;;;;21.30;73.10;;;;;;4956809;28;96267;-39
2023/10/09 07:44:19;;;;;;;;;;;21.30;73.20;;;;;;4943547;28;96987;-39
2023/10/09 07:47:13;;;;;;;;;;;21.30;73.20;;;;;;4946282;28;95342;-39
2023/10/09 07:49:39;;;;;;;;;;;21.30;73.10;;;;;;4954985;28;94676;-40
2023/10/09 07:52:06;;;;;;;;;;;21.30;73.00;;;;;;4950541;28;94969;-38
2023/10/09 07:54:36;;;;;;;;;;;21.30;73.10;;;;;;4945717;28;99245;-39
2023/10/09 07:57:15;;;;;;;;;;;21.30;73.20;;;;;;4928810;28;96757;-41
2023/10/09 07:59:49;;;;;;;;;;;21.30;73.30;;;;;;4945236;28;96484;-42
2023/10/09 08:02:16;;;;;;;;;;;21.40;73.30;;;;;;4926710;28;95684;-39
2023/10/09 08:04:53;;;;;;;;;;;21.40;73.00;;;;;;4947687;28;95280;-40
2023/10/09 08:07:34;;;;;;;;;;;21.40;72.80;;;;;;4940394;28;95581;-40
2023/10/09 08:17:54;;;;;;;;;;;21.50;73.00;;;;;;4947377;28;95806;-39
2023/10/09 08:20:25;;;;;;;;;;;21.40;73.00;;;;;;4934921;28;95047;-38
2023/10/09 08:22:55;;;;;;;;;;;21.50;73.00;;;;;;4946493;28;98881;-40
2023/10/09 08:25:35;;;;;;;;;;;21.50;73.20;;;;;;4937220;28;99229;-40
2023/10/09 08:35:55;;;;;;;;;;;21.50;73.00;;;;;;4945085;28;95627;-38
2023/10/09 08:38:23;;;;;;;;;;;21.40;73.10;;;;;;4951558;28;95270;-40
2023/10/09 08:40:50;;;;;;;;;;;21.40;73.50;;;;;;4948362;28;95647;-41
2023/10/09 08:43:18;;;;;;;;;;;21.30;73.40;;;;;;4948109;28;95488;-40
2023/10/09 08:45:48;;;;;;;;;;;21.30;73.40;;;;;;4933141;28;99291;-36
2023/10/09 08:48:17;;;;;;;;;;;21.30;72.80;;;;;;4939066;28;97271;-36
2023/10/09 08:50:44;;;;;;;;;;;20.90;73.10;;;;;;4940283;28;96647;-36
2023/10/09 08:53:10;;;;;;;;;;;20.90;74.70;;;;;;4946429;28;95912;-36
2023/10/09 08:55:37;;;;;;;;;;;20.80;75.20;;;;;;4948582;28;96377;-37
2023/10/09 08:58:15;;;;;;;;;;;20.60;75.90;;;;;;4953752;28;96896;-36
2023/10/09 09:00:45;;;;;;;;;;;20.40;76.40;;;;;;4947882;28;95343;-37
2023/10/09 09:03:16;;;;;;;;;;;20.40;77.10;;;;;;4945198;28;95212;-37
2023/10/09 09:05:44;;;;;;;;;;;20.40;77.00;;;;;;4952168;28;94791;-38
2023/10/09 09:08:22;;;;;;;;;;;20.30;77.70;;;;;;4952729;28;95343;-38
2023/10/09 09:10:50;;;;;;;;;;;20.20;77.60;;;;;;4952133;28;94612;-38
2023/10/09 09:13:18;;;;;;;;;;;20.20;77.40;;;;;;4956410;28;94709;-39
2023/10/09 09:15:46;;;;;;;;;;;20.30;77.60;;;;;;4941685;28;97658;-37
2023/10/09 09:18:17;;;;;;;;;;;20.20;77.80;;;;;;4948647;28;96164;-38
2023/10/09 09:20:46;;;;;;;;;;;20.20;78.20;;;;;;4939069;28;94696;-36
2023/10/09 09:23:12;;;;;;;;;;;20.30;78.70;;;;;;4944861;28;94707;-36
2023/10/09 09:25:44;;;;;;;;;;;20.20;78.30;;;;;;4949041;28;94993;-36
2023/10/09 09:28:12;;;;;;;;;;;20.30;78.60;;;;;;4946085;28;96954;-36
2023/10/09 09:30:38;;;;;;;;;;;20.30;78.90;;;;;;4948083;28;95691;-36
2023/10/09 09:33:44;;;;;;;;;;;20.30;78.40;;;;;;4940002;28;95341;-35
2023/10/09 09:36:11;;;;;;;;;;;20.40;78.70;;;;;;4945071;28;99469;-44
2023/10/09 09:38:47;;;;;;;;;;;20.30;79.10;;;;;;4948595;28;96229;-44
2023/10/09 09:41:23;;;;;;;;;;;20.40;79.80;;;;;;4940628;28;94977;-43
2023/10/09 09:43:51;;;;;;;;;;;20.50;78.80;;;;;;4947884;28;95637;-46
2023/10/09 09:46:18;;;;;;;;;;;20.60;78.50;;;;;;4952860;28;94748;-45
2023/10/09 09:48:45;;;;;;;;;;;20.70;78.00;;;;;;4944526;28;95142;-44
2023/10/09 09:51:14;;;;;;;;;;;20.60;78.80;;;;;;4937394;28;94747;-46
2023/10/09 09:53:40;;;;;;;;;;;20.70;78.50;;;;;;4945477;28;95454;-46
2023/10/09 09:56:06;;;;;;;;;;;20.80;77.20;;;;;;4942478;28;96249;-48
2023/10/09 09:58:42;;;;;;;;;;;20.80;77.20;;;;;;4944924;28;95666;-47
2023/10/09 10:01:16;;;;;;;;;;;20.90;77.20;;;;;;4940621;28;95334;-46
2023/10/09 10:03:47;;;;;;;;;;;20.90;76.80;;;;;;4948634;28;95974;-47
2023/10/09 10:06:13;;;;;;;;;;;20.90;76.60;;;;;;4946928;28;95830;-46
2023/10/09 10:08:41;;;;;;;;;;;21.00;76.50;;;;;;4942806;28;95746;-46
2023/10/09 10:11:13;;;;;;;;;;;21.00;77.20;;;;;;4947924;28;96061;-45
2023/10/09 10:13:42;;;;;;;;;;;21.00;76.70;;;;;;4929733;28;94759;-47
2023/10/09 10:16:19;;;;;;;;;;;21.10;77.00;;;;;;4944640;28;100322;-47
2023/10/09 10:19:06;;;;;;;;;;;21.10;77.30;;;;;;4945132;28;94758;-46
2023/10/09 10:21:40;;;;;;;;;;;21.10;77.20;;;;;;4953635;28;95030;-45
2023/10/09 10:24:24;;;;;;;;;;;21.20;77.90;;;;;;4944617;28;95122;-47
2023/10/09 10:27:17;;;;;;;;;;;21.20;77.00;;;;;;4952162;28;94289;-46
2023/10/09 10:29:46;;;;;;;;;;;21.20;76.90;;;;;;4950242;28;97142;-46
2023/10/09 10:32:12;;;;;;;;;;;21.20;76.90;;;;;;4947990;28;95161;-46
2023/10/09 10:34:55;;;;;;;;;;;21.20;77.00;;;;;;4944864;28;96213;-44
2023/10/09 10:37:50;;;;;;;;;;;21.30;77.10;;;;;;4955332;28;94910;-44
2023/10/09 10:43:31;;;;;;;;;;;21.50;76.50;;;;;;4946925;28;95170;-42
2023/10/09 10:48:49;;;;;;;;;;;21.70;75.80;;;;;;4934133;28;95703;-42
2023/10/09 10:51:19;;;;;;;;;;;21.70;75.70;;;;;;4931531;28;97451;-43
2023/10/09 10:53:52;;;;;;;;;;;21.80;75.30;;;;;;4933480;28;94384;-39
2023/10/09 10:56:18;;;;;;;;;;;21.90;75.10;;;;;;4934338;28;95888;-39
2023/10/09 10:59:22;;;;;;;;;;;21.90;74.00;;;;;;4936328;28;96008;-40
2023/10/09 11:04:27;;;;;;;;;;;22.00;74.20;;;;;;4946577;28;95623;-40
2023/10/09 11:06:53;;;;;;;;;;;22.10;74.10;;;;;;4939272;28;94850;-40
2023/10/09 11:09:22;;;;;;;;;;;22.20;74.00;;;;;;4954433;28;94795;-39
2023/10/09 11:11:55;;;;;;;;;;;22.20;73.90;;;;;;4948233;28;97034;-42
2023/10/09 11:14:23;;;;;;;;;;;22.20;73.60;;;;;;4953476;28;94711;-38
2023/10/09 11:16:49;;;;;;;;;;;22.30;73.70;;;;;;4935090;28;96791;-38
2023/10/09 11:21:58;;;;;;;;;;;22.40;74.00;;;;;;4954082;28;95171;-40
2023/10/09 11:24:33;;;;;;;;;;;22.40;73.80;;;;;;4934202;28;97119;-39
2023/10/09 11:27:05;;;;;;;;;;;22.40;73.70;;;;;;4945881;28;96681;-37
2023/10/09 11:32:17;;;;;;;;;;;22.30;73.70;;;;;;4940573;28;98252;-38
2023/10/09 11:34:51;;;;;;;;;;;22.30;73.00;;;;;;4944641;28;94760;-37
2023/10/09 11:37:39;;;;;;;;;;;22.40;74.30;;;;;;4941324;28;95724;-38
2023/10/09 11:40:04;;;;;;;;;;;22.40;74.60;;;;;;4948095;28;94914;-36
2023/10/09 11:42:37;;;;;;;;;;;22.40;74.00;;;;;;4951861;28;95763;-36
2023/10/09 11:45:37;;;;;;;;;;;22.40;74.10;;;;;;4942560;28;94420;-36
2023/10/09 11:47:57;;;;;;;;;;;22.40;73.40;;;;;;4945981;28;95185;-37
2023/10/09 11:50:42;;;;;;;;;;;22.40;73.40;;;;;;4948120;28;95145;-37
2023/10/09 11:53:09;;;;;;;;;;;22.50;73.60;;;;;;4951669;28;96338;-37
2023/10/09 11:55:35;;;;;;;;;;;22.50;71.60;;;;;;4952230;28;94657;-38
2023/10/09 11:58:02;;;;;;;;;;;22.50;72.40;;;;;;4943830;28;94984;-36
2023/10/09 12:00:30;;;;;;;;;;;22.50;71.90;;;;;;4947337;28;95633;-37
2023/10/09 12:02:56;;;;;;;;;;;22.50;71.30;;;;;;4946926;28;94757;-36
2023/10/09 12:05:23;;;;;;;;;;;22.50;71.80;;;;;;4948853;28;95668;-35
2023/10/09 12:07:54;;;;;;;;;;;22.50;68.10;;;;;;4957206;28;96045;-37
2023/10/09 12:10:26;;;;;;;;;;;22.60;69.20;;;;;;4946076;28;94323;-37
2023/10/09 12:12:57;;;;;;;;;;;22.60;70.30;;;;;;4951902;28;96766;-39
2023/10/09 12:15:23;;;;;;;;;;;22.60;69.60;;;;;;4948963;28;95550;-39
2023/10/09 12:17:49;;;;;;;;;;;22.70;67.90;;;;;;4934313;28;96099;-38
2023/10/09 12:20:31;;;;;;;;;;;22.70;70.90;;;;;;4932555;28;97432;-38
2023/10/09 12:23:00;;;;;;;;;;;22.60;70.90;;;;;;4943013;28;99505;-38
2023/10/09 12:25:26;;;;;;;;;;;22.60;71.40;;;;;;4950169;28;94867;-37
2023/10/09 12:27:55;;;;;;;;;;;22.50;71.40;;;;;;4953105;28;97746;-37
2023/10/09 12:30:26;;;;;;;;;;;22.50;72.10;;;;;;4948647;28;96853;-37
2023/10/09 12:32:57;;;;;;;;;;;22.40;72.20;;;;;;4945450;28;94854;-36
2023/10/09 12:35:24;;;;;;;;;;;22.40;71.40;;;;;;4944291;28;94706;-39
2023/10/09 12:37:51;;;;;;;;;;;22.40;71.30;;;;;;4945381;28;95985;-39
2023/10/09 12:40:23;;;;;;;;;;;22.40;72.40;;;;;;4944557;28;97735;-40
2023/10/09 12:42:52;;;;;;;;;;;22.40;72.20;;;;;;4941002;28;96290;-37
2023/10/09 12:45:25;;;;;;;;;;;22.50;71.50;;;;;;4938017;28;95602;-39
2023/10/09 12:48:03;;;;;;;;;;;22.60;71.00;;;;;;4950989;28;99355;-37
2023/10/09 12:50:33;;;;;;;;;;;22.60;72.00;;;;;;4954203;28;95771;-37
2023/10/09 12:53:02;;;;;;;;;;;22.60;71.00;;;;;;4955338;28;95271;-38
2023/10/09 12:55:31;;;;;;;;;;;22.60;72.10;;;;;;4938128;28;96817;-38
2023/10/09 12:58:00;;;;;;;;;;;22.70;72.30;;;;;;4953057;28;94700;-37
2023/10/09 13:00:26;;;;;;;;;;;22.70;72.30;;;;;;4940105;28;95525;-36
2023/10/09 13:02:52;;;;;;;;;;;22.60;71.80;;;;;;4953366;28;94838;-37
2023/10/09 13:05:27;;;;;;;;;;;22.70;72.30;;;;;;4950792;28;95119;-38
2023/10/09 13:08:02;;;;;;;;;;;22.70;73.30;;;;;;4949792;28;98008;-37
2023/10/09 13:10:31;;;;;;;;;;;22.60;72.80;;;;;;4953675;28;95066;-37
2023/10/09 13:12:56;;;;;;;;;;;22.70;72.60;;;;;;4939829;28;96918;-38
2023/10/09 13:15:22;;;;;;;;;;;22.70;72.30;;;;;;4942453;28;96385;-39
2023/10/09 13:17:47;;;;;;;;;;;22.80;72.40;;;;;;4945626;28;95531;-39
2023/10/09 13:20:13;;;;;;;;;;;22.70;73.80;;;;;;4956563;28;94802;-37
2023/10/09 13:22:39;;;;;;;;;;;22.70;73.70;;;;;;4946700;28;95449;-39
2023/10/09 13:25:15;;;;;;;;;;;22.70;73.00;;;;;;4954386;28;93891;-38
2023/10/09 13:27:41;;;;;;;;;;;22.80;73.10;;;;;;4952637;28;95066;-39
2023/10/09 13:30:08;;;;;;;;;;;22.70;72.10;;;;;;4951921;28;94854;-39
2023/10/09 13:32:35;;;;;;;;;;;22.80;72.60;;;;;;4948752;28;99853;-40
2023/10/09 13:35:03;;;;;;;;;;;22.70;72.50;;;;;;4941233;28;99045;-43
2023/10/09 13:37:30;;;;;;;;;;;22.80;72.80;;;;;;4943746;28;95887;-38
2023/10/09 13:39:57;;;;;;;;;;;22.80;73.40;;;;;;4942347;28;95729;-39
2023/10/09 13:42:25;;;;;;;;;;;22.80;72.60;;;;;;4946609;28;95465;-39
2023/10/09 13:44:53;;;;;;;;;;;22.80;71.90;;;;;;4951207;28;94708;-37
2023/10/09 13:47:20;;;;;;;;;;;22.80;71.40;;;;;;4941769;28;97287;-39
2023/10/09 13:49:50;;;;;;;;;;;22.80;70.40;;;;;;4952648;28;94383;-41
2023/10/09 13:52:19;;;;;;;;;;;22.80;69.30;;;;;;4943737;28;94744;-42
2023/10/09 13:54:50;;;;;;;;;;;22.90;69.70;;;;;;4949149;28;96979;-41
2023/10/09 13:57:16;;;;;;;;;;;22.90;69.70;;;;;;4942785;28;98442;-39
2023/10/09 13:59:51;;;;;;;;;;;22.90;70.40;;;;;;4948235;28;96790;-38
2023/10/09 14:02:17;;;;;;;;;;;22.90;71.40;;;;;;4955218;28;95196;-40
2023/10/09 14:04:51;;;;;;;;;;;22.90;71.80;;;;;;4949043;28;95165;-40
2023/10/09 14:07:17;;;;;;;;;;;22.90;71.90;;;;;;4943822;28;95374;-38
2023/10/09 14:12:14;;;;;;;;;;;22.90;70.70;;;;;;4933520;28;95882;-39
2023/10/09 14:14:49;;;;;;;;;;;22.90;70.40;;;;;;4947081;28;94922;-39
2023/10/09 14:17:23;;;;;;;;;;;22.90;67.40;;;;;;4934849;28;95639;-39
2023/10/09 14:19:49;;;;;;;;;;;22.90;66.60;;;;;;4940942;28;95890;-39
2023/10/09 14:22:18;;;;;;;;;;;22.70;69.60;;;;;;4939068;28;99672;-38
2023/10/09 14:24:45;;;;;;;;;;;22.70;70.10;;;;;;4942829;28;95661;-38
2023/10/09 14:27:17;;;;;;;;;;;22.60;70.30;;;;;;4949823;28;95931;-38
2023/10/09 14:29:46;;;;;;;;;;;22.60;70.30;;;;;;4949707;28;95513;-39
2023/10/09 14:32:14;;;;;;;;;;;22.50;70.30;;;;;;4951302;28;97664;-39
2023/10/09 14:34:49;;;;;;;;;;;22.50;70.40;;;;;;4947973;28;97633;-39
2023/10/09 14:37:15;;;;;;;;;;;22.60;70.00;;;;;;4947715;28;94926;-39
2023/10/09 14:39:41;;;;;;;;;;;22.60;69.60;;;;;;4941442;28;94834;-39
2023/10/09 14:42:10;;;;;;;;;;;22.60;69.20;;;;;;4953367;28;95024;-38
2023/10/09 14:44:37;;;;;;;;;;;22.50;69.50;;;;;;4951861;28;94895;-39
2023/10/09 14:47:06;;;;;;;;;;;22.50;69.20;;;;;;4948323;28;96102;-38
2023/10/09 14:49:37;;;;;;;;;;;22.50;66.80;;;;;;4950619;28;95145;-39
2023/10/09 14:52:03;;;;;;;;;;;22.50;68.00;;;;;;4942450;28;94828;-38
2023/10/09 14:54:28;;;;;;;;;;;22.50;67.50;;;;;;4945326;28;95179;-38
2023/10/09 14:56:54;;;;;;;;;;;22.50;67.10;;;;;;4945686;28;98603;-39
2023/10/09 14:59:22;;;;;;;;;;;22.50;67.00;;;;;;4938448;28;94699;-38
2023/10/09 15:01:49;;;;;;;;;;;22.50;67.10;;;;;;4943103;28;94782;-38
2023/10/09 15:04:15;;;;;;;;;;;22.60;65.80;;;;;;4940304;28;97301;-39
2023/10/09 15:06:40;;;;;;;;;;;22.70;64.00;;;;;;4946859;28;95399;-38
2023/10/09 15:09:09;;;;;;;;;;;22.70;64.30;;;;;;4951445;28;95695;-39
2023/10/09 15:11:37;;;;;;;;;;;22.60;64.90;;;;;;4944535;28;100369;-39
2023/10/09 15:14:04;;;;;;;;;;;22.60;64.80;;;;;;4948746;28;95333;-43
2023/10/09 15:16:30;;;;;;;;;;;22.60;64.90;;;;;;4938581;28;94858;-41
2023/10/09 15:18:57;;;;;;;;;;;22.50;65.00;;;;;;4948435;28;94703;-45
2023/10/09 15:21:26;;;;;;;;;;;22.50;65.10;;;;;;4938734;28;95544;-42
2023/10/09 15:23:55;;;;;;;;;;;22.50;65.10;;;;;;4940518;28;94788;-41
2023/10/09 15:26:21;;;;;;;;;;;22.60;65.20;;;;;;4952859;28;95176;-41
2023/10/09 15:28:49;;;;;;;;;;;22.60;65.30;;;;;;4941635;28;98206;-40
2023/10/09 15:31:16;;;;;;;;;;;22.60;65.30;;;;;;4940588;28;95231;-43
2023/10/09 15:33:42;;;;;;;;;;;22.70;65.20;;;;;;4933314;28;95990;-40
2023/10/09 15:36:14;;;;;;;;;;;22.60;64.00;;;;;;4935065;28;97836;-40
2023/10/09 15:38:40;;;;;;;;;;;22.70;64.50;;;;;;4935019;28;95313;-40
2023/10/09 15:41:06;;;;;;;;;;;22.70;64.80;;;;;;4943901;28;99830;-40
2023/10/09 15:43:41;;;;;;;;;;;22.60;65.00;;;;;;4936999;28;95206;-39
2023/10/09 15:46:16;;;;;;;;;;;22.60;64.80;;;;;;4930369;28;95658;-43
2023/10/09 15:48:45;;;;;;;;;;;22.60;64.90;;;;;;4948358;28;95569;-42
2023/10/09 15:51:15;;;;;;;;;;;22.60;63.90;;;;;;4941051;28;95532;-42
2023/10/09 15:53:41;;;;;;;;;;;22.70;62.80;;;;;;4944403;28;93976;-41
2023/10/09 15:56:07;;;;;;;;;;;22.80;62.60;;;;;;4940909;28;95282;-41
2023/10/09 15:58:33;;;;;;;;;;;22.80;62.10;;;;;;4940325;28;95677;-42
2023/10/09 16:00:59;;;;;;;;;;;22.80;64.20;;;;;;4951246;28;95639;-41
2023/10/09 16:03:27;;;;;;;;;;;22.70;64.50;;;;;;4952066;28;96804;-40
2023/10/09 16:05:53;;;;;;;;;;;22.70;64.00;;;;;;4944740;28;94959;-41
2023/10/09 16:08:19;;;;;;;;;;;22.70;64.10;;;;;;4944157;28;99676;-42
2023/10/09 16:10:46;;;;;;;;;;;22.60;63.70;;;;;;4940523;28;98549;-39
2023/10/09 16:13:12;;;;;;;;;;;22.60;63.60;;;;;;4951390;28;95750;-42
2023/10/09 16:15:43;;;;;;;;;;;22.60;63.70;;;;;;4949908;28;95941;-40
2023/10/09 16:18:08;;;;;;;;;;;22.60;63.50;;;;;;4956333;28;94041;-38
2023/10/09 16:20:37;;;;;;;;;;;22.60;63.70;;;;;;4946807;28;98755;-39
2023/10/09 16:23:04;;;;;;;;;;;22.60;64.00;;;;;;4953507;28;95097;-38
2023/10/09 16:25:34;;;;;;;;;;;22.50;63.90;;;;;;4949001;28;99749;-39
2023/10/09 16:28:01;;;;;;;;;;;22.50;63.70;;;;;;4956581;28;94736;-39
2023/10/09 16:30:27;;;;;;;;;;;22.50;63.70;;;;;;4948377;28;94732;-38
2023/10/09 16:32:53;;;;;;;;;;;22.50;64.00;;;;;;4946674;28;94999;-40
2023/10/09 16:35:22;;;;;;;;;;;22.50;64.50;;;;;;4956727;28;94685;-38
2023/10/09 16:37:49;;;;;;;;;;;22.40;64.90;;;;;;4954837;28;98264;-39
2023/10/09 16:40:15;;;;;;;;;;;22.40;65.00;;;;;;4931242;28;95274;-39
2023/10/09 16:42:42;;;;;;;;;;;22.40;65.60;;;;;;4928815;28;94746;-39
2023/10/09 16:45:12;;;;;;;;;;;22.30;65.90;;;;;;4948016;28;95107;-38
2023/10/09 16:47:38;;;;;;;;;;;22.30;66.20;;;;;;4944919;28;95638;-38
2023/10/09 16:50:09;;;;;;;;;;;22.30;66.60;;;;;;4945532;28;98146;-39
2023/10/09 16:52:37;;;;;;;;;;;22.30;66.80;;;;;;4951057;28;96439;-40
2023/10/09 16:55:08;;;;;;;;;;;22.20;67.20;;;;;;4939558;28;96496;-42
2023/10/09 16:57:41;;;;;;;;;;;22.20;67.50;;;;;;4944956;28;95512;-41
2023/10/09 17:00:12;;;;;;;;;;;22.20;68.40;;;;;;4947876;28;94941;-38